sensor_id;sensor_type;location;lat;lon;timestamp;P1;durP1;ratioP1;P2;durP2;ratioP2
75297;SDS011;63896;45.990;18.688;2023-05-07T00:00:26;11.95;;;7.68;;
75297;SDS011;63896;45.990;18.688;2023-05-07T00:03:30;12.00;;;7.28;;
75297;SDS011;63896;45.990;18.688;2023-05-07T00:06:34;12.70;;;8.70;;
75297;SDS011;63896;45.990;18.688;2023-05-07T00:09:38;12.63;;;7.37;;
75297;SDS011;63896;45.990;18.688;2023-05-07T00:12:41;11.25;;;7.88;;
75297;SDS011;63896;45.990;18.688;2023-05-07T00:15:45;13.70;;;7.78;;
75297;SDS011;63896;45.990;18.688;2023-05-07T00:18:52;11.23;;;7.72;;
75297;SDS011;63896;45.990;18.688;2023-05-07T00:21:56;10.80;;;7.60;;
75297;SDS011;63896;45.990;18.688;2023-05-07T00:24:59;12.17;;;7.70;;
75297;SDS011;63896;45.990;18.688;2023-05-07T00:28:03;14.18;;;7.63;;
75297;SDS011;63896;45.990;18.688;2023-05-07T00:31:06;10.43;;;7.88;;
75297;SDS011;63896;45.990;18.688;2023-05-07T00:34:12;10.63;;;7.63;;
75297;SDS011;63896;45.990;18.688;2023-05-07T00:37:21;12.48;;;8.15;;
75297;SDS011;63896;45.990;18.688;2023-05-07T00:40:25;12.17;;;7.73;;
75297;SDS011;63896;45.990;18.688;2023-05-07T00:43:28;11.65;;;7.20;;
75297;SDS011;63896;45.990;18.688;2023-05-07T00:46:32;12.48;;;7.85;;
75297;SDS011;63896;45.990;18.688;2023-05-07T00:49:43;11.35;;;8.07;;
75297;SDS011;63896;45.990;18.688;2023-05-07T00:52:48;13.18;;;7.97;;
75297;SDS011;63896;45.990;18.688;2023-05-07T00:55:52;13.00;;;8.30;;
75297;SDS011;63896;45.990;18.688;2023-05-07T00:58:55;12.98;;;8.73;;
75297;SDS011;63896;45.990;18.688;2023-05-07T01:01:59;16.80;;;9.55;;
75297;SDS011;63896;45.990;18.688;2023-05-07T01:05:03;12.90;;;8.82;;
75297;SDS011;63896;45.990;18.688;2023-05-07T01:08:08;15.65;;;9.55;;
75297;SDS011;63896;45.990;18.688;2023-05-07T01:11:13;12.90;;;9.13;;
75297;SDS011;63896;45.990;18.688;2023-05-07T01:14:16;13.50;;;9.25;;
75297;SDS011;63896;45.990;18.688;2023-05-07T01:17:21;15.88;;;10.32;;
75297;SDS011;63896;45.990;18.688;2023-05-07T01:20:24;16.08;;;10.07;;
75297;SDS011;63896;45.990;18.688;2023-05-07T01:23:29;15.32;;;10.82;;
75297;SDS011;63896;45.990;18.688;2023-05-07T01:26:33;17.27;;;10.93;;
75297;SDS011;63896;45.990;18.688;2023-05-07T01:29:36;17.13;;;11.48;;
75297;SDS011;63896;45.990;18.688;2023-05-07T01:32:43;16.08;;;11.15;;
75297;SDS011;63896;45.990;18.688;2023-05-07T01:35:48;15.88;;;11.00;;
75297;SDS011;63896;45.990;18.688;2023-05-07T01:38:55;15.85;;;10.75;;
75297;SDS011;63896;45.990;18.688;2023-05-07T01:42:00;15.60;;;10.87;;
75297;SDS011;63896;45.990;18.688;2023-05-07T01:45:03;17.55;;;11.02;;
75297;SDS011;63896;45.990;18.688;2023-05-07T01:48:07;18.20;;;10.45;;
75297;SDS011;63896;45.990;18.688;2023-05-07T01:51:12;14.88;;;9.90;;
75297;SDS011;63896;45.990;18.688;2023-05-07T01:54:15;19.30;;;10.60;;
75297;SDS011;63896;45.990;18.688;2023-05-07T01:57:19;16.90;;;11.50;;
75297;SDS011;63896;45.990;18.688;2023-05-07T02:00:22;18.85;;;12.07;;
75297;SDS011;63896;45.990;18.688;2023-05-07T02:03:25;23.85;;;13.57;;
75297;SDS011;63896;45.990;18.688;2023-05-07T02:06:38;21.48;;;13.63;;
75297;SDS011;63896;45.990;18.688;2023-05-07T02:09:42;21.33;;;14.15;;
75297;SDS011;63896;45.990;18.688;2023-05-07T02:12:46;18.67;;;12.60;;
75297;SDS011;63896;45.990;18.688;2023-05-07T02:15:49;21.63;;;12.48;;
75297;SDS011;63896;45.990;18.688;2023-05-07T02:18:53;19.73;;;12.93;;
75297;SDS011;63896;45.990;18.688;2023-05-07T02:21:56;20.20;;;13.27;;
75297;SDS011;63896;45.990;18.688;2023-05-07T02:25:04;20.05;;;13.30;;
75297;SDS011;63896;45.990;18.688;2023-05-07T02:28:07;17.53;;;12.60;;
75297;SDS011;63896;45.990;18.688;2023-05-07T02:31:30;18.13;;;12.60;;
75297;SDS011;63896;45.990;18.688;2023-05-07T02:34:34;17.35;;;12.63;;
75297;SDS011;63896;45.990;18.688;2023-05-07T02:37:37;21.67;;;12.35;;
75297;SDS011;63896;45.990;18.688;2023-05-07T02:40:39;25.40;;;12.80;;
75297;SDS011;63896;45.990;18.688;2023-05-07T02:43:43;19.23;;;12.07;;
75297;SDS011;63896;45.990;18.688;2023-05-07T02:46:46;18.60;;;11.95;;
75297;SDS011;63896;45.990;18.688;2023-05-07T02:49:49;17.05;;;12.52;;
75297;SDS011;63896;45.990;18.688;2023-05-07T02:52:52;20.15;;;12.57;;
75297;SDS011;63896;45.990;18.688;2023-05-07T02:55:55;19.27;;;12.48;;
75297;SDS011;63896;45.990;18.688;2023-05-07T02:58:59;17.80;;;12.60;;
75297;SDS011;63896;45.990;18.688;2023-05-07T03:02:07;19.33;;;11.25;;
75297;SDS011;63896;45.990;18.688;2023-05-07T03:05:11;17.58;;;11.10;;
75297;SDS011;63896;45.990;18.688;2023-05-07T03:08:14;17.10;;;11.50;;
75297;SDS011;63896;45.990;18.688;2023-05-07T03:11:17;19.20;;;11.82;;
75297;SDS011;63896;45.990;18.688;2023-05-07T03:14:20;19.17;;;12.40;;
75297;SDS011;63896;45.990;18.688;2023-05-07T03:17:24;22.10;;;12.45;;
75297;SDS011;63896;45.990;18.688;2023-05-07T03:20:27;19.20;;;13.43;;
75297;SDS011;63896;45.990;18.688;2023-05-07T03:23:30;20.08;;;13.25;;
75297;SDS011;63896;45.990;18.688;2023-05-07T03:26:33;21.50;;;14.35;;
75297;SDS011;63896;45.990;18.688;2023-05-07T03:29:36;20.83;;;13.53;;
75297;SDS011;63896;45.990;18.688;2023-05-07T03:32:39;17.75;;;12.35;;
75297;SDS011;63896;45.990;18.688;2023-05-07T03:35:46;21.67;;;14.57;;
75297;SDS011;63896;45.990;18.688;2023-05-07T03:38:54;20.58;;;14.25;;
75297;SDS011;63896;45.990;18.688;2023-05-07T03:42:00;20.88;;;13.45;;
75297;SDS011;63896;45.990;18.688;2023-05-07T03:45:04;21.73;;;13.07;;
75297;SDS011;63896;45.990;18.688;2023-05-07T03:48:08;16.20;;;11.95;;
75297;SDS011;63896;45.990;18.688;2023-05-07T03:51:11;19.08;;;12.38;;
75297;SDS011;63896;45.990;18.688;2023-05-07T03:54:15;17.55;;;11.98;;
75297;SDS011;63896;45.990;18.688;2023-05-07T03:57:20;18.35;;;11.88;;
75297;SDS011;63896;45.990;18.688;2023-05-07T04:00:23;17.13;;;10.73;;
75297;SDS011;63896;45.990;18.688;2023-05-07T04:03:26;16.73;;;10.80;;
75297;SDS011;63896;45.990;18.688;2023-05-07T04:06:33;17.60;;;11.68;;
75297;SDS011;63896;45.990;18.688;2023-05-07T04:09:35;18.15;;;10.90;;
75297;SDS011;63896;45.990;18.688;2023-05-07T04:12:38;18.77;;;10.90;;
75297;SDS011;63896;45.990;18.688;2023-05-07T04:15:43;14.87;;;9.90;;
75297;SDS011;63896;45.990;18.688;2023-05-07T04:18:50;15.82;;;10.48;;
75297;SDS011;63896;45.990;18.688;2023-05-07T04:21:53;18.60;;;10.90;;
75297;SDS011;63896;45.990;18.688;2023-05-07T04:24:56;15.45;;;10.80;;
75297;SDS011;63896;45.990;18.688;2023-05-07T04:27:59;15.07;;;10.93;;
75297;SDS011;63896;45.990;18.688;2023-05-07T04:31:04;18.67;;;10.60;;
75297;SDS011;63896;45.990;18.688;2023-05-07T04:34:10;13.40;;;10.23;;
75297;SDS011;63896;45.990;18.688;2023-05-07T04:37:13;18.40;;;10.07;;
75297;SDS011;63896;45.990;18.688;2023-05-07T04:40:16;13.95;;;9.82;;
75297;SDS011;63896;45.990;18.688;2023-05-07T04:43:19;17.20;;;10.20;;
75297;SDS011;63896;45.990;18.688;2023-05-07T04:46:25;14.53;;;9.40;;
75297;SDS011;63896;45.990;18.688;2023-05-07T04:49:31;15.52;;;9.93;;
75297;SDS011;63896;45.990;18.688;2023-05-07T04:52:34;16.08;;;10.65;;
75297;SDS011;63896;45.990;18.688;2023-05-07T04:55:38;16.10;;;10.07;;
75297;SDS011;63896;45.990;18.688;2023-05-07T04:58:41;13.30;;;9.55;;
75297;SDS011;63896;45.990;18.688;2023-05-07T05:01:45;15.30;;;9.80;;
75297;SDS011;63896;45.990;18.688;2023-05-07T05:04:48;14.40;;;9.40;;
75297;SDS011;63896;45.990;18.688;2023-05-07T05:07:51;12.82;;;9.48;;
75297;SDS011;63896;45.990;18.688;2023-05-07T05:10:55;16.85;;;9.63;;
75297;SDS011;63896;45.990;18.688;2023-05-07T05:13:58;13.30;;;9.85;;
75297;SDS011;63896;45.990;18.688;2023-05-07T05:17:03;16.20;;;9.73;;
75297;SDS011;63896;45.990;18.688;2023-05-07T05:20:06;21.75;;;10.25;;
75297;SDS011;63896;45.990;18.688;2023-05-07T05:23:10;14.65;;;10.27;;
75297;SDS011;63896;45.990;18.688;2023-05-07T05:26:13;15.88;;;10.00;;
75297;SDS011;63896;45.990;18.688;2023-05-07T05:29:16;13.57;;;9.98;;
75297;SDS011;63896;45.990;18.688;2023-05-07T05:32:20;14.40;;;10.40;;
75297;SDS011;63896;45.990;18.688;2023-05-07T05:35:24;17.08;;;10.05;;
75297;SDS011;63896;45.990;18.688;2023-05-07T05:38:27;14.25;;;10.15;;
75297;SDS011;63896;45.990;18.688;2023-05-07T05:41:30;19.42;;;9.85;;
75297;SDS011;63896;45.990;18.688;2023-05-07T05:44:34;14.93;;;9.82;;
75297;SDS011;63896;45.990;18.688;2023-05-07T05:47:37;16.43;;;9.80;;
75297;SDS011;63896;45.990;18.688;2023-05-07T05:50:41;16.38;;;9.18;;
75297;SDS011;63896;45.990;18.688;2023-05-07T05:53:45;14.07;;;9.85;;
75297;SDS011;63896;45.990;18.688;2023-05-07T05:56:48;13.05;;;9.38;;
75297;SDS011;63896;45.990;18.688;2023-05-07T05:59:52;14.90;;;9.93;;
75297;SDS011;63896;45.990;18.688;2023-05-07T06:02:55;14.40;;;9.50;;
75297;SDS011;63896;45.990;18.688;2023-05-07T06:06:00;18.75;;;9.50;;
75297;SDS011;63896;45.990;18.688;2023-05-07T06:09:03;16.23;;;9.70;;
75297;SDS011;63896;45.990;18.688;2023-05-07T06:12:12;14.38;;;9.57;;
75297;SDS011;63896;45.990;18.688;2023-05-07T06:15:16;15.70;;;9.45;;
75297;SDS011;63896;45.990;18.688;2023-05-07T06:18:20;17.03;;;9.07;;
75297;SDS011;63896;45.990;18.688;2023-05-07T06:21:23;15.82;;;9.57;;
75297;SDS011;63896;45.990;18.688;2023-05-07T06:24:26;15.13;;;9.43;;
75297;SDS011;63896;45.990;18.688;2023-05-07T06:27:29;14.20;;;9.43;;
75297;SDS011;63896;45.990;18.688;2023-05-07T06:30:32;15.75;;;9.18;;
75297;SDS011;63896;45.990;18.688;2023-05-07T06:33:36;14.07;;;8.93;;
75297;SDS011;63896;45.990;18.688;2023-05-07T06:36:42;11.45;;;8.90;;
75297;SDS011;63896;45.990;18.688;2023-05-07T06:40:11;13.82;;;9.18;;
75297;SDS011;63896;45.990;18.688;2023-05-07T06:43:28;15.95;;;8.68;;
75297;SDS011;63896;45.990;18.688;2023-05-07T06:46:57;14.85;;;8.35;;
75297;SDS011;63896;45.990;18.688;2023-05-07T06:50:15;11.80;;;7.13;;
75297;SDS011;63896;45.990;18.688;2023-05-07T06:53:19;8.25;;;7.00;;
75297;SDS011;63896;45.990;18.688;2023-05-07T06:56:23;11.60;;;7.18;;
75297;SDS011;63896;45.990;18.688;2023-05-07T06:59:26;11.80;;;6.75;;
75297;SDS011;63896;45.990;18.688;2023-05-07T07:02:30;8.75;;;6.30;;
75297;SDS011;63896;45.990;18.688;2023-05-07T07:05:33;8.20;;;6.47;;
75297;SDS011;63896;45.990;18.688;2023-05-07T07:08:37;9.35;;;7.72;;
75297;SDS011;63896;45.990;18.688;2023-05-07T07:11:42;10.52;;;6.97;;
75297;SDS011;63896;45.990;18.688;2023-05-07T07:14:45;12.23;;;6.60;;
75297;SDS011;63896;45.990;18.688;2023-05-07T07:17:49;8.20;;;6.50;;
75297;SDS011;63896;45.990;18.688;2023-05-07T07:20:52;9.23;;;6.50;;
75297;SDS011;63896;45.990;18.688;2023-05-07T07:23:56;7.22;;;6.30;;
75297;SDS011;63896;45.990;18.688;2023-05-07T07:26:59;8.30;;;6.35;;
75297;SDS011;63896;45.990;18.688;2023-05-07T07:30:04;10.43;;;7.38;;
75297;SDS011;63896;45.990;18.688;2023-05-07T07:33:14;8.50;;;6.72;;
75297;SDS011;63896;45.990;18.688;2023-05-07T07:36:17;9.70;;;5.90;;
75297;SDS011;63896;45.990;18.688;2023-05-07T07:39:20;7.10;;;5.90;;
75297;SDS011;63896;45.990;18.688;2023-05-07T07:42:26;7.97;;;5.43;;
75297;SDS011;63896;45.990;18.688;2023-05-07T07:45:29;8.00;;;4.72;;
75297;SDS011;63896;45.990;18.688;2023-05-07T07:48:33;7.65;;;5.38;;
75297;SDS011;63896;45.990;18.688;2023-05-07T07:51:36;6.87;;;5.67;;
75297;SDS011;63896;45.990;18.688;2023-05-07T07:54:39;10.30;;;5.68;;
75297;SDS011;63896;45.990;18.688;2023-05-07T07:57:43;8.27;;;5.57;;
75297;SDS011;63896;45.990;18.688;2023-05-07T08:00:46;8.20;;;5.00;;
75297;SDS011;63896;45.990;18.688;2023-05-07T08:03:50;12.18;;;4.88;;
75297;SDS011;63896;45.990;18.688;2023-05-07T08:06:53;6.97;;;4.70;;
75297;SDS011;63896;45.990;18.688;2023-05-07T08:09:56;8.75;;;5.13;;
75297;SDS011;63896;45.990;18.688;2023-05-07T08:13:01;5.88;;;4.78;;
75297;SDS011;63896;45.990;18.688;2023-05-07T08:16:07;7.28;;;5.00;;
75297;SDS011;63896;45.990;18.688;2023-05-07T08:19:11;7.60;;;5.43;;
75297;SDS011;63896;45.990;18.688;2023-05-07T08:22:16;9.70;;;5.23;;
75297;SDS011;63896;45.990;18.688;2023-05-07T08:25:20;8.10;;;5.13;;
75297;SDS011;63896;45.990;18.688;2023-05-07T08:28:24;5.82;;;5.13;;
75297;SDS011;63896;45.990;18.688;2023-05-07T08:31:27;6.32;;;5.32;;
75297;SDS011;63896;45.990;18.688;2023-05-07T08:34:42;6.38;;;5.47;;
75297;SDS011;63896;45.990;18.688;2023-05-07T08:37:45;5.83;;;4.50;;
75297;SDS011;63896;45.990;18.688;2023-05-07T08:40:48;5.68;;;4.72;;
75297;SDS011;63896;45.990;18.688;2023-05-07T08:43:54;7.57;;;4.80;;
75297;SDS011;63896;45.990;18.688;2023-05-07T08:47:02;5.45;;;4.72;;
75297;SDS011;63896;45.990;18.688;2023-05-07T08:50:06;8.45;;;4.72;;
75297;SDS011;63896;45.990;18.688;2023-05-07T08:53:10;6.30;;;4.80;;
75297;SDS011;63896;45.990;18.688;2023-05-07T08:56:14;5.18;;;4.68;;
75297;SDS011;63896;45.990;18.688;2023-05-07T08:59:24;6.07;;;4.72;;
75297;SDS011;63896;45.990;18.688;2023-05-07T09:02:27;7.68;;;4.65;;
75297;SDS011;63896;45.990;18.688;2023-05-07T09:05:30;8.63;;;5.38;;
75297;SDS011;63896;45.990;18.688;2023-05-07T09:08:35;5.80;;;4.93;;
75297;SDS011;63896;45.990;18.688;2023-05-07T09:11:40;6.40;;;4.75;;
75297;SDS011;63896;45.990;18.688;2023-05-07T09:14:43;7.07;;;5.45;;
75297;SDS011;63896;45.990;18.688;2023-05-07T09:17:46;7.97;;;5.50;;
75297;SDS011;63896;45.990;18.688;2023-05-07T09:20:52;8.00;;;6.47;;
75297;SDS011;63896;45.990;18.688;2023-05-07T09:23:58;10.40;;;5.80;;
75297;SDS011;63896;45.990;18.688;2023-05-07T09:27:10;8.52;;;6.40;;
75297;SDS011;63896;45.990;18.688;2023-05-07T09:30:18;8.43;;;7.32;;
75297;SDS011;63896;45.990;18.688;2023-05-07T09:33:21;10.73;;;7.30;;
75297;SDS011;63896;45.990;18.688;2023-05-07T09:36:27;16.00;;;8.65;;
75297;SDS011;63896;45.990;18.688;2023-05-07T09:43:22;11.30;;;8.40;;
75297;SDS011;63896;45.990;18.688;2023-05-07T09:46:31;10.50;;;8.50;;
75297;SDS011;63896;45.990;18.688;2023-05-07T09:49:41;12.35;;;9.65;;
75297;SDS011;63896;45.990;18.688;2023-05-07T09:52:54;16.08;;;9.93;;
75297;SDS011;63896;45.990;18.688;2023-05-07T09:56:00;15.40;;;9.40;;
75297;SDS011;63896;45.990;18.688;2023-05-07T09:59:07;14.60;;;9.15;;
75297;SDS011;63896;45.990;18.688;2023-05-07T10:02:11;13.07;;;9.68;;
75297;SDS011;63896;45.990;18.688;2023-05-07T10:05:22;16.52;;;9.10;;
75297;SDS011;63896;45.990;18.688;2023-05-07T10:08:26;12.73;;;9.40;;
75297;SDS011;63896;45.990;18.688;2023-05-07T10:11:36;18.67;;;9.20;;
75297;SDS011;63896;45.990;18.688;2023-05-07T10:14:40;13.25;;;9.68;;
75297;SDS011;63896;45.990;18.688;2023-05-07T10:17:44;14.05;;;10.48;;
75297;SDS011;63896;45.990;18.688;2023-05-07T10:20:48;12.38;;;10.00;;
75297;SDS011;63896;45.990;18.688;2023-05-07T10:24:04;12.60;;;10.38;;
75297;SDS011;63896;45.990;18.688;2023-05-07T10:27:10;11.27;;;9.40;;
75297;SDS011;63896;45.990;18.688;2023-05-07T10:33:47;13.15;;;8.77;;
75297;SDS011;63896;45.990;18.688;2023-05-07T10:36:56;11.20;;;8.27;;
75297;SDS011;63896;45.990;18.688;2023-05-07T10:39:59;10.30;;;7.60;;
75297;SDS011;63896;45.990;18.688;2023-05-07T10:43:05;8.53;;;6.60;;
75297;SDS011;63896;45.990;18.688;2023-05-07T10:46:21;8.40;;;6.68;;
75297;SDS011;63896;45.990;18.688;2023-05-07T10:56:32;7.22;;;6.30;;
75297;SDS011;63896;45.990;18.688;2023-05-07T10:59:41;10.00;;;5.87;;
75297;SDS011;63896;45.990;18.688;2023-05-07T11:06:12;7.38;;;5.32;;
75297;SDS011;63896;45.990;18.688;2023-05-07T11:09:53;10.70;;;5.60;;
75297;SDS011;63896;45.990;18.688;2023-05-07T11:12:57;5.90;;;5.03;;
75297;SDS011;63896;45.990;18.688;2023-05-07T11:16:22;5.37;;;4.20;;
75297;SDS011;63896;45.990;18.688;2023-05-07T11:19:51;6.40;;;5.10;;
75297;SDS011;63896;45.990;18.688;2023-05-07T11:26:54;6.88;;;3.72;;
75297;SDS011;63896;45.990;18.688;2023-05-07T11:30:00;7.13;;;4.10;;
75297;SDS011;63896;45.990;18.688;2023-05-07T11:33:06;8.13;;;4.73;;
75297;SDS011;63896;45.990;18.688;2023-05-07T11:36:09;4.85;;;4.30;;
75297;SDS011;63896;45.990;18.688;2023-05-07T11:39:23;5.90;;;4.80;;
75297;SDS011;63896;45.990;18.688;2023-05-07T11:42:30;8.38;;;4.70;;
75297;SDS011;63896;45.990;18.688;2023-05-07T11:45:37;7.45;;;4.93;;
75297;SDS011;63896;45.990;18.688;2023-05-07T11:49:03;6.17;;;4.50;;
75297;SDS011;63896;45.990;18.688;2023-05-07T11:52:06;8.73;;;4.50;;
75297;SDS011;63896;45.990;18.688;2023-05-07T11:55:09;5.10;;;4.10;;
75297;SDS011;63896;45.990;18.688;2023-05-07T11:58:18;7.30;;;4.30;;
75297;SDS011;63896;45.990;18.688;2023-05-07T12:01:23;8.80;;;4.10;;
75297;SDS011;63896;45.990;18.688;2023-05-07T12:04:28;5.53;;;4.40;;
75297;SDS011;63896;45.990;18.688;2023-05-07T12:07:33;6.85;;;4.40;;
75297;SDS011;63896;45.990;18.688;2023-05-07T12:10:40;4.85;;;4.13;;
75297;SDS011;63896;45.990;18.688;2023-05-07T12:13:44;10.23;;;4.10;;
75297;SDS011;63896;45.990;18.688;2023-05-07T12:16:47;5.13;;;4.70;;
75297;SDS011;63896;45.990;18.688;2023-05-07T12:19:51;8.40;;;3.70;;
75297;SDS011;63896;45.990;18.688;2023-05-07T12:22:55;5.03;;;3.65;;
75297;SDS011;63896;45.990;18.688;2023-05-07T12:25:59;6.50;;;4.10;;
75297;SDS011;63896;45.990;18.688;2023-05-07T12:29:03;5.30;;;4.60;;
75297;SDS011;63896;45.990;18.688;2023-05-07T12:32:06;7.53;;;4.40;;
75297;SDS011;63896;45.990;18.688;2023-05-07T12:35:16;6.83;;;4.10;;
75297;SDS011;63896;45.990;18.688;2023-05-07T12:38:19;4.95;;;3.80;;
75297;SDS011;63896;45.990;18.688;2023-05-07T12:41:22;7.35;;;4.25;;
75297;SDS011;63896;45.990;18.688;2023-05-07T12:44:29;6.32;;;4.40;;
75297;SDS011;63896;45.990;18.688;2023-05-07T12:47:33;4.85;;;4.28;;
75297;SDS011;63896;45.990;18.688;2023-05-07T12:50:36;4.70;;;4.17;;
75297;SDS011;63896;45.990;18.688;2023-05-07T12:53:40;7.18;;;4.15;;
75297;SDS011;63896;45.990;18.688;2023-05-07T12:56:46;4.97;;;4.35;;
75297;SDS011;63896;45.990;18.688;2023-05-07T12:59:48;5.93;;;3.72;;
75297;SDS011;63896;45.990;18.688;2023-05-07T13:02:53;5.57;;;3.78;;
75297;SDS011;63896;45.990;18.688;2023-05-07T13:06:22;5.37;;;4.20;;
75297;SDS011;63896;45.990;18.688;2023-05-07T13:09:25;5.65;;;4.70;;
75297;SDS011;63896;45.990;18.688;2023-05-07T13:12:43;5.78;;;4.30;;
75297;SDS011;63896;45.990;18.688;2023-05-07T13:15:55;5.97;;;4.38;;
75297;SDS011;63896;45.990;18.688;2023-05-07T13:18:57;5.82;;;4.32;;
75297;SDS011;63896;45.990;18.688;2023-05-07T13:22:00;6.03;;;3.97;;
75297;SDS011;63896;45.990;18.688;2023-05-07T13:25:04;6.95;;;4.25;;
75297;SDS011;63896;45.990;18.688;2023-05-07T13:28:07;5.60;;;4.60;;
75297;SDS011;63896;45.990;18.688;2023-05-07T13:31:12;8.38;;;4.45;;
75297;SDS011;63896;45.990;18.688;2023-05-07T13:34:15;6.07;;;5.00;;
75297;SDS011;63896;45.990;18.688;2023-05-07T13:37:18;5.97;;;4.30;;
75297;SDS011;63896;45.990;18.688;2023-05-07T13:40:22;6.32;;;4.45;;
75297;SDS011;63896;45.990;18.688;2023-05-07T13:43:26;6.07;;;4.40;;
75297;SDS011;63896;45.990;18.688;2023-05-07T13:46:28;5.50;;;4.30;;
75297;SDS011;63896;45.990;18.688;2023-05-07T13:49:32;5.72;;;4.13;;
75297;SDS011;63896;45.990;18.688;2023-05-07T13:52:35;4.00;;;3.60;;
75297;SDS011;63896;45.990;18.688;2023-05-07T13:55:38;4.10;;;3.55;;
75297;SDS011;63896;45.990;18.688;2023-05-07T13:58:41;3.75;;;3.40;;
75297;SDS011;63896;45.990;18.688;2023-05-07T14:02:01;5.53;;;3.58;;
75297;SDS011;63896;45.990;18.688;2023-05-07T14:05:04;4.90;;;3.53;;
75297;SDS011;63896;45.990;18.688;2023-05-07T14:08:07;3.97;;;3.60;;
75297;SDS011;63896;45.990;18.688;2023-05-07T14:11:10;4.93;;;3.42;;
75297;SDS011;63896;45.990;18.688;2023-05-07T14:14:13;5.65;;;3.42;;
75297;SDS011;63896;45.990;18.688;2023-05-07T14:17:16;3.95;;;3.13;;
75297;SDS011;63896;45.990;18.688;2023-05-07T14:20:20;5.15;;;3.40;;
75297;SDS011;63896;45.990;18.688;2023-05-07T14:23:23;4.07;;;3.60;;
75297;SDS011;63896;45.990;18.688;2023-05-07T14:26:28;6.93;;;3.80;;
75297;SDS011;63896;45.990;18.688;2023-05-07T14:29:32;5.05;;;3.63;;
75297;SDS011;63896;45.990;18.688;2023-05-07T14:32:44;4.85;;;3.90;;
75297;SDS011;63896;45.990;18.688;2023-05-07T14:35:47;5.88;;;4.18;;
75297;SDS011;63896;45.990;18.688;2023-05-07T14:38:52;8.03;;;4.70;;
75297;SDS011;63896;45.990;18.688;2023-05-07T14:41:59;5.25;;;4.00;;
75297;SDS011;63896;45.990;18.688;2023-05-07T14:45:02;6.25;;;4.75;;
75297;SDS011;63896;45.990;18.688;2023-05-07T14:48:06;4.20;;;3.80;;
75297;SDS011;63896;45.990;18.688;2023-05-07T14:51:09;6.10;;;4.18;;
75297;SDS011;63896;45.990;18.688;2023-05-07T14:54:12;5.30;;;4.00;;
75297;SDS011;63896;45.990;18.688;2023-05-07T14:57:16;4.70;;;4.18;;
75297;SDS011;63896;45.990;18.688;2023-05-07T15:00:20;4.90;;;3.97;;
75297;SDS011;63896;45.990;18.688;2023-05-07T15:03:23;4.53;;;3.45;;
75297;SDS011;63896;45.990;18.688;2023-05-07T15:06:27;4.05;;;3.65;;
75297;SDS011;63896;45.990;18.688;2023-05-07T15:09:30;4.00;;;3.40;;
75297;SDS011;63896;45.990;18.688;2023-05-07T15:12:32;5.63;;;3.83;;
75297;SDS011;63896;45.990;18.688;2023-05-07T15:15:36;5.72;;;3.80;;
75297;SDS011;63896;45.990;18.688;2023-05-07T15:18:39;4.00;;;3.60;;
75297;SDS011;63896;45.990;18.688;2023-05-07T15:21:42;5.13;;;3.65;;
75297;SDS011;63896;45.990;18.688;2023-05-07T15:24:45;4.57;;;3.70;;
75297;SDS011;63896;45.990;18.688;2023-05-07T15:27:48;4.07;;;3.65;;
75297;SDS011;63896;45.990;18.688;2023-05-07T15:30:51;5.30;;;3.90;;
75297;SDS011;63896;45.990;18.688;2023-05-07T15:33:57;4.40;;;4.00;;
75297;SDS011;63896;45.990;18.688;2023-05-07T15:37:00;6.55;;;4.07;;
75297;SDS011;63896;45.990;18.688;2023-05-07T15:40:03;6.13;;;3.50;;
75297;SDS011;63896;45.990;18.688;2023-05-07T15:43:09;4.20;;;3.78;;
75297;SDS011;63896;45.990;18.688;2023-05-07T15:46:16;4.28;;;3.67;;
75297;SDS011;63896;45.990;18.688;2023-05-07T15:49:22;4.65;;;3.65;;
75297;SDS011;63896;45.990;18.688;2023-05-07T15:52:25;4.30;;;3.90;;
75297;SDS011;63896;45.990;18.688;2023-05-07T15:55:29;4.70;;;3.47;;
75297;SDS011;63896;45.990;18.688;2023-05-07T15:58:33;6.15;;;4.05;;
75297;SDS011;63896;45.990;18.688;2023-05-07T16:01:37;5.03;;;4.47;;
75297;SDS011;63896;45.990;18.688;2023-05-07T16:04:44;5.13;;;4.63;;
75297;SDS011;63896;45.990;18.688;2023-05-07T16:07:47;6.75;;;4.90;;
75297;SDS011;63896;45.990;18.688;2023-05-07T16:10:50;6.27;;;5.00;;
75297;SDS011;63896;45.990;18.688;2023-05-07T16:13:52;5.10;;;4.60;;
75297;SDS011;63896;45.990;18.688;2023-05-07T16:16:55;5.80;;;4.70;;
75297;SDS011;63896;45.990;18.688;2023-05-07T16:19:59;4.88;;;4.43;;
75297;SDS011;63896;45.990;18.688;2023-05-07T16:23:03;5.50;;;4.43;;
75297;SDS011;63896;45.990;18.688;2023-05-07T16:26:06;5.50;;;4.33;;
75297;SDS011;63896;45.990;18.688;2023-05-07T16:29:09;4.97;;;4.47;;
75297;SDS011;63896;45.990;18.688;2023-05-07T16:32:12;7.70;;;4.25;;
75297;SDS011;63896;45.990;18.688;2023-05-07T16:35:15;5.35;;;4.00;;
75297;SDS011;63896;45.990;18.688;2023-05-07T16:38:18;5.30;;;4.35;;
75297;SDS011;63896;45.990;18.688;2023-05-07T16:41:21;6.53;;;4.97;;
75297;SDS011;63896;45.990;18.688;2023-05-07T16:44:24;4.90;;;4.28;;
75297;SDS011;63896;45.990;18.688;2023-05-07T16:47:28;6.63;;;4.40;;
75297;SDS011;63896;45.990;18.688;2023-05-07T16:50:30;7.47;;;3.90;;
75297;SDS011;63896;45.990;18.688;2023-05-07T16:53:34;5.75;;;4.30;;
75297;SDS011;63896;45.990;18.688;2023-05-07T16:56:37;4.77;;;4.30;;
75297;SDS011;63896;45.990;18.688;2023-05-07T16:59:40;5.53;;;4.20;;
75297;SDS011;63896;45.990;18.688;2023-05-07T17:02:43;6.75;;;4.60;;
75297;SDS011;63896;45.990;18.688;2023-05-07T17:05:47;5.13;;;4.60;;
75297;SDS011;63896;45.990;18.688;2023-05-07T17:08:50;7.70;;;4.18;;
75297;SDS011;63896;45.990;18.688;2023-05-07T17:11:53;4.70;;;4.20;;
75297;SDS011;63896;45.990;18.688;2023-05-07T17:14:55;4.50;;;4.10;;
75297;SDS011;63896;45.990;18.688;2023-05-07T17:17:58;5.53;;;4.40;;
75297;SDS011;63896;45.990;18.688;2023-05-07T17:21:01;5.75;;;4.25;;
75297;SDS011;63896;45.990;18.688;2023-05-07T17:24:04;4.78;;;4.30;;
75297;SDS011;63896;45.990;18.688;2023-05-07T17:27:07;5.13;;;4.40;;
75297;SDS011;63896;45.990;18.688;2023-05-07T17:30:10;7.40;;;4.60;;
75297;SDS011;63896;45.990;18.688;2023-05-07T17:33:14;5.05;;;4.57;;
75297;SDS011;63896;45.990;18.688;2023-05-07T17:36:23;5.40;;;4.32;;
75297;SDS011;63896;45.990;18.688;2023-05-07T17:39:26;5.50;;;4.80;;
75297;SDS011;63896;45.990;18.688;2023-05-07T17:42:29;5.37;;;4.30;;
75297;SDS011;63896;45.990;18.688;2023-05-07T17:45:34;5.03;;;4.53;;
75297;SDS011;63896;45.990;18.688;2023-05-07T17:48:37;5.28;;;4.78;;
75297;SDS011;63896;45.990;18.688;2023-05-07T17:51:40;5.50;;;4.80;;
75297;SDS011;63896;45.990;18.688;2023-05-07T17:54:55;5.28;;;4.78;;
75297;SDS011;63896;45.990;18.688;2023-05-07T17:57:58;7.40;;;4.60;;
75297;SDS011;63896;45.990;18.688;2023-05-07T18:01:01;6.88;;;4.85;;
75297;SDS011;63896;45.990;18.688;2023-05-07T18:04:04;7.00;;;4.55;;
75297;SDS011;63896;45.990;18.688;2023-05-07T18:07:07;7.10;;;4.68;;
75297;SDS011;63896;45.990;18.688;2023-05-07T18:10:11;5.68;;;5.07;;
75297;SDS011;63896;45.990;18.688;2023-05-07T18:13:14;5.77;;;4.77;;
75297;SDS011;63896;45.990;18.688;2023-05-07T18:16:17;6.90;;;4.72;;
75297;SDS011;63896;45.990;18.688;2023-05-07T18:19:21;6.93;;;5.10;;
75297;SDS011;63896;45.990;18.688;2023-05-07T18:22:24;9.45;;;5.13;;
75297;SDS011;63896;45.990;18.688;2023-05-07T18:25:27;6.72;;;5.43;;
75297;SDS011;63896;45.990;18.688;2023-05-07T18:28:29;6.00;;;5.20;;